sensor_id;sensor_type;location;lat;lon;timestamp;P1;durP1;ratioP1;P2;durP2;ratioP2
14528;SDS011;7351;51.194;4.098;2023-02-12T00:00:10;6.93;;;6.43;;
14528;SDS011;7351;51.194;4.098;2023-02-12T00:02:39;6.77;;;6.30;;
14528;SDS011;7351;51.194;4.098;2023-02-12T00:05:06;8.20;;;7.60;;
14528;SDS011;7351;51.194;4.098;2023-02-12T00:07:35;6.70;;;6.27;;
14528;SDS011;7351;51.194;4.098;2023-02-12T00:10:02;7.37;;;6.87;;
14528;SDS011;7351;51.194;4.098;2023-02-12T00:12:29;6.87;;;6.37;;
14528;SDS011;7351;51.194;4.098;2023-02-12T00:14:56;7.70;;;7.10;;
14528;SDS011;7351;51.194;4.098;2023-02-12T00:17:23;7.50;;;6.87;;
14528;SDS011;7351;51.194;4.098;2023-02-12T00:19:50;6.03;;;5.63;;
14528;SDS011;7351;51.194;4.098;2023-02-12T00:22:17;7.07;;;6.57;;
14528;SDS011;7351;51.194;4.098;2023-02-12T00:24:45;6.53;;;6.10;;
14528;SDS011;7351;51.194;4.098;2023-02-12T00:27:12;7.20;;;6.70;;
14528;SDS011;7351;51.194;4.098;2023-02-12T00:29:39;7.00;;;6.60;;
14528;SDS011;7351;51.194;4.098;2023-02-12T00:32:06;7.10;;;6.37;;
14528;SDS011;7351;51.194;4.098;2023-02-12T00:34:33;7.00;;;6.50;;
14528;SDS011;7351;51.194;4.098;2023-02-12T00:37:00;6.27;;;5.90;;
14528;SDS011;7351;51.194;4.098;2023-02-12T00:39:27;7.20;;;6.70;;
14528;SDS011;7351;51.194;4.098;2023-02-12T00:41:55;6.77;;;6.27;;
14528;SDS011;7351;51.194;4.098;2023-02-12T00:44:22;7.33;;;6.70;;
14528;SDS011;7351;51.194;4.098;2023-02-12T00:46:49;6.83;;;6.37;;
14528;SDS011;7351;51.194;4.098;2023-02-12T00:49:16;7.23;;;6.53;;
14528;SDS011;7351;51.194;4.098;2023-02-12T00:51:44;6.43;;;6.03;;
14528;SDS011;7351;51.194;4.098;2023-02-12T00:54:11;5.87;;;5.47;;
14528;SDS011;7351;51.194;4.098;2023-02-12T00:56:38;6.23;;;5.73;;
14528;SDS011;7351;51.194;4.098;2023-02-12T00:59:06;5.80;;;5.50;;
14528;SDS011;7351;51.194;4.098;2023-02-12T01:01:33;6.60;;;6.20;;
14528;SDS011;7351;51.194;4.098;2023-02-12T01:04:00;6.37;;;5.97;;
14528;SDS011;7351;51.194;4.098;2023-02-12T01:06:27;5.73;;;5.33;;
14528;SDS011;7351;51.194;4.098;2023-02-12T01:08:54;5.50;;;5.20;;
14528;SDS011;7351;51.194;4.098;2023-02-12T01:11:21;5.93;;;5.53;;
14528;SDS011;7351;51.194;4.098;2023-02-12T01:13:48;5.83;;;5.43;;
14528;SDS011;7351;51.194;4.098;2023-02-12T01:16:17;5.63;;;5.23;;
14528;SDS011;7351;51.194;4.098;2023-02-12T01:18:46;5.20;;;4.90;;
14528;SDS011;7351;51.194;4.098;2023-02-12T01:21:15;5.37;;;4.97;;
14528;SDS011;7351;51.194;4.098;2023-02-12T01:23:44;6.50;;;6.00;;
14528;SDS011;7351;51.194;4.098;2023-02-12T01:26:11;5.63;;;5.23;;
14528;SDS011;7351;51.194;4.098;2023-02-12T01:28:40;5.63;;;5.23;;
14528;SDS011;7351;51.194;4.098;2023-02-12T01:31:10;5.07;;;4.77;;
14528;SDS011;7351;51.194;4.098;2023-02-12T01:33:39;4.93;;;4.63;;
14528;SDS011;7351;51.194;4.098;2023-02-12T01:36:06;5.60;;;5.20;;
14528;SDS011;7351;51.194;4.098;2023-02-12T01:38:34;5.90;;;5.50;;
14528;SDS011;7351;51.194;4.098;2023-02-12T01:41:02;4.57;;;4.37;;
14528;SDS011;7351;51.194;4.098;2023-02-12T01:43:30;5.03;;;4.73;;
14528;SDS011;7351;51.194;4.098;2023-02-12T01:45:59;5.63;;;5.33;;
14528;SDS011;7351;51.194;4.098;2023-02-12T01:48:27;4.73;;;4.33;;
14528;SDS011;7351;51.194;4.098;2023-02-12T01:50:58;5.00;;;4.67;;
14528;SDS011;7351;51.194;4.098;2023-02-12T01:53:28;4.60;;;4.30;;
14528;SDS011;7351;51.194;4.098;2023-02-12T01:55:59;5.07;;;4.67;;
14528;SDS011;7351;51.194;4.098;2023-02-12T01:58:29;5.53;;;5.23;;
14528;SDS011;7351;51.194;4.098;2023-02-12T02:01:00;5.50;;;5.20;;
14528;SDS011;7351;51.194;4.098;2023-02-12T02:03:29;4.80;;;4.50;;
14528;SDS011;7351;51.194;4.098;2023-02-12T02:05:58;5.30;;;5.00;;
14528;SDS011;7351;51.194;4.098;2023-02-12T02:08:29;5.43;;;5.13;;
14528;SDS011;7351;51.194;4.098;2023-02-12T02:10:56;5.63;;;5.33;;
14528;SDS011;7351;51.194;4.098;2023-02-12T02:13:23;4.33;;;4.03;;
14528;SDS011;7351;51.194;4.098;2023-02-12T02:16:10;5.13;;;4.83;;
14528;SDS011;7351;51.194;4.098;2023-02-12T02:18:46;4.93;;;4.63;;
14528;SDS011;7351;51.194;4.098;2023-02-12T02:27:23;4.70;;;4.30;;
14528;SDS011;7351;51.194;4.098;2023-02-12T02:32:58;4.70;;;4.50;;
14528;SDS011;7351;51.194;4.098;2023-02-12T02:35:37;4.57;;;4.27;;
14528;SDS011;7351;51.194;4.098;2023-02-12T02:38:14;5.27;;;4.97;;
14528;SDS011;7351;51.194;4.098;2023-02-12T02:40:48;4.40;;;4.13;;
14528;SDS011;7351;51.194;4.098;2023-02-12T02:43:22;4.90;;;4.60;;
14528;SDS011;7351;51.194;4.098;2023-02-12T02:45:56;4.83;;;4.53;;
14528;SDS011;7351;51.194;4.098;2023-02-12T02:48:27;4.23;;;4.03;;
14528;SDS011;7351;51.194;4.098;2023-02-12T02:50:59;4.47;;;4.27;;
14528;SDS011;7351;51.194;4.098;2023-02-12T02:53:30;4.17;;;3.97;;
14528;SDS011;7351;51.194;4.098;2023-02-12T02:56:02;4.60;;;4.20;;
14528;SDS011;7351;51.194;4.098;2023-02-12T02:58:34;4.67;;;4.37;;
14528;SDS011;7351;51.194;4.098;2023-02-12T03:01:06;4.63;;;4.23;;
14528;SDS011;7351;51.194;4.098;2023-02-12T03:03:37;4.60;;;4.20;;
14528;SDS011;7351;51.194;4.098;2023-02-12T03:06:11;4.30;;;3.90;;
14528;SDS011;7351;51.194;4.098;2023-02-12T03:08:43;4.20;;;4.00;;
14528;SDS011;7351;51.194;4.098;2023-02-12T03:11:16;4.90;;;4.60;;
14528;SDS011;7351;51.194;4.098;2023-02-12T03:13:48;4.77;;;4.47;;
14528;SDS011;7351;51.194;4.098;2023-02-12T03:16:21;4.83;;;4.53;;
14528;SDS011;7351;51.194;4.098;2023-02-12T03:18:51;6.67;;;4.93;;
14528;SDS011;7351;51.194;4.098;2023-02-12T03:21:23;4.77;;;4.40;;
14528;SDS011;7351;51.194;4.098;2023-02-12T03:23:56;4.10;;;3.83;;
14528;SDS011;7351;51.194;4.098;2023-02-12T03:26:30;5.33;;;4.97;;
14528;SDS011;7351;51.194;4.098;2023-02-12T03:29:03;4.53;;;4.23;;
14528;SDS011;7351;51.194;4.098;2023-02-12T03:31:33;4.63;;;4.23;;
14528;SDS011;7351;51.194;4.098;2023-02-12T03:34:08;4.40;;;4.10;;
14528;SDS011;7351;51.194;4.098;2023-02-12T03:36:44;4.40;;;4.07;;
14528;SDS011;7351;51.194;4.098;2023-02-12T03:39:19;4.50;;;3.60;;
14528;SDS011;7351;51.194;4.098;2023-02-12T03:41:56;4.27;;;4.03;;
14528;SDS011;7351;51.194;4.098;2023-02-12T03:44:30;4.57;;;4.27;;
14528;SDS011;7351;51.194;4.098;2023-02-12T03:47:15;3.83;;;3.63;;
14528;SDS011;7351;51.194;4.098;2023-02-12T03:49:48;3.90;;;3.60;;
14528;SDS011;7351;51.194;4.098;2023-02-12T03:52:20;4.10;;;3.87;;
14528;SDS011;7351;51.194;4.098;2023-02-12T03:54:48;4.87;;;4.57;;
14528;SDS011;7351;51.194;4.098;2023-02-12T03:57:16;4.30;;;4.10;;
14528;SDS011;7351;51.194;4.098;2023-02-12T03:59:45;4.17;;;3.90;;
14528;SDS011;7351;51.194;4.098;2023-02-12T04:02:15;4.07;;;3.77;;
14528;SDS011;7351;51.194;4.098;2023-02-12T04:04:43;4.17;;;3.87;;
14528;SDS011;7351;51.194;4.098;2023-02-12T04:07:12;4.47;;;4.20;;
14528;SDS011;7351;51.194;4.098;2023-02-12T04:09:40;9.43;;;4.63;;
14528;SDS011;7351;51.194;4.098;2023-02-12T04:12:21;4.03;;;3.73;;
14528;SDS011;7351;51.194;4.098;2023-02-12T04:15:02;4.50;;;3.90;;
14528;SDS011;7351;51.194;4.098;2023-02-12T04:17:43;5.47;;;3.73;;
14528;SDS011;7351;51.194;4.098;2023-02-12T04:20:18;4.27;;;3.70;;
14528;SDS011;7351;51.194;4.098;2023-02-12T04:22:53;4.20;;;3.80;;
14528;SDS011;7351;51.194;4.098;2023-02-12T04:25:34;3.53;;;3.33;;
14528;SDS011;7351;51.194;4.098;2023-02-12T04:28:11;3.70;;;3.40;;
14528;SDS011;7351;51.194;4.098;2023-02-12T04:30:45;3.67;;;3.47;;
14528;SDS011;7351;51.194;4.098;2023-02-12T04:33:21;3.97;;;3.77;;
14528;SDS011;7351;51.194;4.098;2023-02-12T04:35:51;3.90;;;3.70;;
14528;SDS011;7351;51.194;4.098;2023-02-12T04:38:26;3.80;;;3.50;;
14528;SDS011;7351;51.194;4.098;2023-02-12T04:40:57;4.03;;;3.23;;
14528;SDS011;7351;51.194;4.098;2023-02-12T04:43:25;3.17;;;2.97;;
14528;SDS011;7351;51.194;4.098;2023-02-12T04:45:53;3.77;;;3.47;;
14528;SDS011;7351;51.194;4.098;2023-02-12T04:48:22;3.10;;;2.90;;
14528;SDS011;7351;51.194;4.098;2023-02-12T04:50:49;3.20;;;3.00;;
14528;SDS011;7351;51.194;4.098;2023-02-12T04:53:15;3.33;;;3.13;;
14528;SDS011;7351;51.194;4.098;2023-02-12T04:55:42;3.50;;;3.30;;
14528;SDS011;7351;51.194;4.098;2023-02-12T04:58:10;3.33;;;3.13;;
14528;SDS011;7351;51.194;4.098;2023-02-12T05:00:37;3.80;;;3.60;;
14528;SDS011;7351;51.194;4.098;2023-02-12T05:03:04;3.40;;;3.20;;
14528;SDS011;7351;51.194;4.098;2023-02-12T05:05:32;3.57;;;3.37;;
14528;SDS011;7351;51.194;4.098;2023-02-12T05:07:59;3.20;;;3.00;;
14528;SDS011;7351;51.194;4.098;2023-02-12T05:10:27;3.23;;;3.07;;
14528;SDS011;7351;51.194;4.098;2023-02-12T05:12:53;4.40;;;4.00;;
14528;SDS011;7351;51.194;4.098;2023-02-12T05:15:21;3.70;;;3.40;;
14528;SDS011;7351;51.194;4.098;2023-02-12T05:17:48;3.23;;;3.03;;
14528;SDS011;7351;51.194;4.098;2023-02-12T05:20:15;3.63;;;3.43;;
14528;SDS011;7351;51.194;4.098;2023-02-12T05:22:43;3.63;;;3.43;;
14528;SDS011;7351;51.194;4.098;2023-02-12T05:25:10;3.20;;;3.00;;
14528;SDS011;7351;51.194;4.098;2023-02-12T05:27:37;3.03;;;2.83;;
14528;SDS011;7351;51.194;4.098;2023-02-12T05:30:05;2.90;;;2.80;;
14528;SDS011;7351;51.194;4.098;2023-02-12T05:32:33;3.37;;;3.13;;
14528;SDS011;7351;51.194;4.098;2023-02-12T05:35:00;3.60;;;3.33;;
14528;SDS011;7351;51.194;4.098;2023-02-12T05:37:27;3.80;;;3.60;;
14528;SDS011;7351;51.194;4.098;2023-02-12T05:39:56;3.90;;;3.07;;
14528;SDS011;7351;51.194;4.098;2023-02-12T05:42:23;3.87;;;3.57;;
14528;SDS011;7351;51.194;4.098;2023-02-12T05:44:50;4.70;;;4.20;;
14528;SDS011;7351;51.194;4.098;2023-02-12T05:47:17;3.27;;;2.97;;
14528;SDS011;7351;51.194;4.098;2023-02-12T05:49:44;3.90;;;3.50;;
14528;SDS011;7351;51.194;4.098;2023-02-12T05:52:11;4.47;;;4.13;;
14528;SDS011;7351;51.194;4.098;2023-02-12T05:54:38;3.50;;;3.30;;
14528;SDS011;7351;51.194;4.098;2023-02-12T05:57:06;4.30;;;3.50;;
14528;SDS011;7351;51.194;4.098;2023-02-12T05:59:33;3.53;;;3.23;;
14528;SDS011;7351;51.194;4.098;2023-02-12T06:02:00;6.60;;;3.27;;
14528;SDS011;7351;51.194;4.098;2023-02-12T06:04:28;5.10;;;3.07;;
14528;SDS011;7351;51.194;4.098;2023-02-12T06:06:55;4.57;;;3.20;;
14528;SDS011;7351;51.194;4.098;2023-02-12T06:09:22;2.83;;;2.63;;
14528;SDS011;7351;51.194;4.098;2023-02-12T06:11:50;6.23;;;3.10;;
14528;SDS011;7351;51.194;4.098;2023-02-12T06:14:19;3.60;;;2.50;;
14528;SDS011;7351;51.194;4.098;2023-02-12T06:16:47;4.43;;;3.17;;
14528;SDS011;7351;51.194;4.098;2023-02-12T06:19:15;3.97;;;3.37;;
14528;SDS011;7351;51.194;4.098;2023-02-12T06:21:43;3.87;;;3.60;;
14528;SDS011;7351;51.194;4.098;2023-02-12T06:24:10;3.20;;;2.73;;
14528;SDS011;7351;51.194;4.098;2023-02-12T06:26:38;3.67;;;2.67;;
14528;SDS011;7351;51.194;4.098;2023-02-12T06:29:05;6.67;;;3.33;;
14528;SDS011;7351;51.194;4.098;2023-02-12T06:31:34;3.50;;;3.30;;
14528;SDS011;7351;51.194;4.098;2023-02-12T06:34:03;6.40;;;2.90;;
14528;SDS011;7351;51.194;4.098;2023-02-12T06:36:32;5.00;;;2.80;;
14528;SDS011;7351;51.194;4.098;2023-02-12T06:38:59;3.07;;;2.97;;
14528;SDS011;7351;51.194;4.098;2023-02-12T06:41:27;3.13;;;2.93;;
14528;SDS011;7351;51.194;4.098;2023-02-12T06:43:54;3.10;;;2.90;;
14528;SDS011;7351;51.194;4.098;2023-02-12T06:46:21;5.33;;;3.00;;
14528;SDS011;7351;51.194;4.098;2023-02-12T06:48:53;3.03;;;2.63;;
14528;SDS011;7351;51.194;4.098;2023-02-12T06:51:20;3.07;;;2.87;;
14528;SDS011;7351;51.194;4.098;2023-02-12T06:53:48;3.30;;;2.93;;
14528;SDS011;7351;51.194;4.098;2023-02-12T06:56:15;3.87;;;3.23;;
14528;SDS011;7351;51.194;4.098;2023-02-12T06:58:44;2.90;;;2.70;;
14528;SDS011;7351;51.194;4.098;2023-02-12T07:01:13;4.63;;;3.30;;
14528;SDS011;7351;51.194;4.098;2023-02-12T07:03:42;3.17;;;2.90;;
14528;SDS011;7351;51.194;4.098;2023-02-12T07:06:13;6.53;;;3.57;;
14528;SDS011;7351;51.194;4.098;2023-02-12T07:08:40;4.40;;;3.00;;
14528;SDS011;7351;51.194;4.098;2023-02-12T07:11:08;6.43;;;3.67;;
14528;SDS011;7351;51.194;4.098;2023-02-12T07:13:35;3.67;;;3.37;;
14528;SDS011;7351;51.194;4.098;2023-02-12T07:16:03;4.00;;;3.70;;
14528;SDS011;7351;51.194;4.098;2023-02-12T07:18:32;4.90;;;3.70;;
14528;SDS011;7351;51.194;4.098;2023-02-12T07:20:59;6.17;;;3.60;;
14528;SDS011;7351;51.194;4.098;2023-02-12T07:23:27;5.47;;;4.33;;
14528;SDS011;7351;51.194;4.098;2023-02-12T07:25:55;3.87;;;3.57;;
14528;SDS011;7351;51.194;4.098;2023-02-12T07:28:22;7.50;;;3.63;;
14528;SDS011;7351;51.194;4.098;2023-02-12T07:30:49;7.17;;;4.60;;
14528;SDS011;7351;51.194;4.098;2023-02-12T07:33:16;3.80;;;3.50;;
14528;SDS011;7351;51.194;4.098;2023-02-12T07:35:44;6.63;;;4.23;;
14528;SDS011;7351;51.194;4.098;2023-02-12T07:38:12;7.03;;;4.73;;
14528;SDS011;7351;51.194;4.098;2023-02-12T07:40:40;4.60;;;4.17;;
14528;SDS011;7351;51.194;4.098;2023-02-12T07:43:07;4.90;;;4.37;;
14528;SDS011;7351;51.194;4.098;2023-02-12T07:45:34;5.60;;;5.10;;
14528;SDS011;7351;51.194;4.098;2023-02-12T07:48:01;5.03;;;4.73;;
14528;SDS011;7351;51.194;4.098;2023-02-12T07:50:28;6.27;;;5.50;;
14528;SDS011;7351;51.194;4.098;2023-02-12T07:52:55;6.33;;;5.73;;
14528;SDS011;7351;51.194;4.098;2023-02-12T07:55:22;6.10;;;5.00;;
14528;SDS011;7351;51.194;4.098;2023-02-12T07:57:51;5.77;;;5.40;;
14528;SDS011;7351;51.194;4.098;2023-02-12T08:00:18;6.33;;;5.80;;
14528;SDS011;7351;51.194;4.098;2023-02-12T08:02:49;6.40;;;5.97;;
14528;SDS011;7351;51.194;4.098;2023-02-12T08:05:17;7.53;;;6.73;;
14528;SDS011;7351;51.194;4.098;2023-02-12T08:07:44;6.83;;;6.33;;
14528;SDS011;7351;51.194;4.098;2023-02-12T08:10:11;6.73;;;6.23;;
14528;SDS011;7351;51.194;4.098;2023-02-12T08:12:38;6.53;;;6.03;;
14528;SDS011;7351;51.194;4.098;2023-02-12T08:15:07;7.70;;;7.13;;
14528;SDS011;7351;51.194;4.098;2023-02-12T08:17:35;6.57;;;6.17;;
14528;SDS011;7351;51.194;4.098;2023-02-12T08:20:02;7.47;;;6.83;;
14528;SDS011;7351;51.194;4.098;2023-02-12T08:22:29;7.43;;;6.97;;
14528;SDS011;7351;51.194;4.098;2023-02-12T08:24:56;7.67;;;7.17;;
14528;SDS011;7351;51.194;4.098;2023-02-12T08:27:23;7.97;;;7.37;;
14528;SDS011;7351;51.194;4.098;2023-02-12T08:29:50;8.30;;;7.70;;
14528;SDS011;7351;51.194;4.098;2023-02-12T08:32:18;8.03;;;7.40;;
14528;SDS011;7351;51.194;4.098;2023-02-12T08:34:45;8.33;;;7.90;;
14528;SDS011;7351;51.194;4.098;2023-02-12T08:37:12;8.10;;;7.70;;
14528;SDS011;7351;51.194;4.098;2023-02-12T08:39:39;8.53;;;8.03;;
14528;SDS011;7351;51.194;4.098;2023-02-12T08:42:06;9.27;;;8.47;;
14528;SDS011;7351;51.194;4.098;2023-02-12T08:44:34;9.67;;;8.90;;
14528;SDS011;7351;51.194;4.098;2023-02-12T08:47:02;9.20;;;8.57;;
14528;SDS011;7351;51.194;4.098;2023-02-12T08:49:32;9.47;;;8.97;;
14528;SDS011;7351;51.194;4.098;2023-02-12T08:51:59;9.30;;;8.67;;
14528;SDS011;7351;51.194;4.098;2023-02-12T08:54:27;9.70;;;9.20;;
14528;SDS011;7351;51.194;4.098;2023-02-12T08:56:56;9.37;;;8.70;;
14528;SDS011;7351;51.194;4.098;2023-02-12T08:59:24;10.93;;;10.10;;
14528;SDS011;7351;51.194;4.098;2023-02-12T09:01:52;9.30;;;8.80;;
14528;SDS011;7351;51.194;4.098;2023-02-12T09:04:20;8.97;;;8.30;;
14528;SDS011;7351;51.194;4.098;2023-02-12T09:06:50;8.53;;;8.03;;
14528;SDS011;7351;51.194;4.098;2023-02-12T09:09:18;9.47;;;8.97;;
14528;SDS011;7351;51.194;4.098;2023-02-12T09:11:45;8.83;;;8.33;;
14528;SDS011;7351;51.194;4.098;2023-02-12T09:14:13;10.13;;;9.53;;
14528;SDS011;7351;51.194;4.098;2023-02-12T09:16:43;8.93;;;8.33;;
14528;SDS011;7351;51.194;4.098;2023-02-12T09:19:10;8.60;;;8.17;;
14528;SDS011;7351;51.194;4.098;2023-02-12T09:21:39;9.23;;;8.70;;
14528;SDS011;7351;51.194;4.098;2023-02-12T09:24:08;9.80;;;9.03;;
14528;SDS011;7351;51.194;4.098;2023-02-12T09:26:36;7.67;;;7.27;;
14528;SDS011;7351;51.194;4.098;2023-02-12T09:29:04;9.17;;;8.57;;
14528;SDS011;7351;51.194;4.098;2023-02-12T09:31:31;8.33;;;7.87;;
14528;SDS011;7351;51.194;4.098;2023-02-12T09:33:59;9.30;;;8.53;;
14528;SDS011;7351;51.194;4.098;2023-02-12T09:36:27;7.57;;;7.20;;
14528;SDS011;7351;51.194;4.098;2023-02-12T09:38:54;7.90;;;7.47;;
14528;SDS011;7351;51.194;4.098;2023-02-12T09:41:29;9.73;;;8.27;;
14528;SDS011;7351;51.194;4.098;2023-02-12T09:44:09;8.87;;;8.37;;
14528;SDS011;7351;51.194;4.098;2023-02-12T09:46:44;8.10;;;7.53;;
14528;SDS011;7351;51.194;4.098;2023-02-12T09:49:17;8.73;;;7.80;;
14528;SDS011;7351;51.194;4.098;2023-02-12T09:51:51;7.87;;;7.33;;
14528;SDS011;7351;51.194;4.098;2023-02-12T09:54:20;7.80;;;7.40;;
14528;SDS011;7351;51.194;4.098;2023-02-12T09:56:50;8.00;;;7.50;;
14528;SDS011;7351;51.194;4.098;2023-02-12T09:59:22;7.47;;;7.07;;
14528;SDS011;7351;51.194;4.098;2023-02-12T10:01:56;7.73;;;7.23;;
14528;SDS011;7351;51.194;4.098;2023-02-12T10:04:24;7.77;;;7.27;;
14528;SDS011;7351;51.194;4.098;2023-02-12T10:06:54;6.67;;;6.33;;
14528;SDS011;7351;51.194;4.098;2023-02-12T10:09:36;7.80;;;7.23;;
14528;SDS011;7351;51.194;4.098;2023-02-12T10:12:19;7.23;;;6.73;;
14528;SDS011;7351;51.194;4.098;2023-02-12T10:14:56;6.43;;;6.13;;
14528;SDS011;7351;51.194;4.098;2023-02-12T10:17:39;6.10;;;5.77;;
14528;SDS011;7351;51.194;4.098;2023-02-12T10:20:30;6.87;;;6.47;;
14528;SDS011;7351;51.194;4.098;2023-02-12T10:23:13;6.80;;;6.30;;
14528;SDS011;7351;51.194;4.098;2023-02-12T10:25:50;6.47;;;6.07;;
14528;SDS011;7351;51.194;4.098;2023-02-12T10:28:22;6.67;;;6.07;;
14528;SDS011;7351;51.194;4.098;2023-02-12T10:30:53;6.67;;;6.07;;
14528;SDS011;7351;51.194;4.098;2023-02-12T10:33:24;7.40;;;6.63;;
14528;SDS011;7351;51.194;4.098;2023-02-12T10:35:55;7.37;;;6.43;;
14528;SDS011;7351;51.194;4.098;2023-02-12T10:38:29;6.73;;;6.07;;
14528;SDS011;7351;51.194;4.098;2023-02-12T10:41:00;9.40;;;6.30;;
14528;SDS011;7351;51.194;4.098;2023-02-12T10:43:28;7.33;;;6.57;;
14528;SDS011;7351;51.194;4.098;2023-02-12T10:45:56;7.37;;;5.97;;
14528;SDS011;7351;51.194;4.098;2023-02-12T10:48:24;6.63;;;6.23;;
14528;SDS011;7351;51.194;4.098;2023-02-12T10:51:01;6.40;;;5.10;;
14528;SDS011;7351;51.194;4.098;2023-02-12T10:53:38;10.70;;;6.00;;
14528;SDS011;7351;51.194;4.098;2023-02-12T10:56:14;6.67;;;6.07;;
14528;SDS011;7351;51.194;4.098;2023-02-12T10:58:51;6.27;;;5.67;;
14528;SDS011;7351;51.194;4.098;2023-02-12T11:01:21;6.40;;;5.80;;
14528;SDS011;7351;51.194;4.098;2023-02-12T11:03:51;5.73;;;5.37;;
14528;SDS011;7351;51.194;4.098;2023-02-12T11:06:20;7.03;;;6.37;;
14528;SDS011;7351;51.194;4.098;2023-02-12T11:08:49;7.27;;;6.13;;
14528;SDS011;7351;51.194;4.098;2023-02-12T11:11:19;7.77;;;7.00;;
14528;SDS011;7351;51.194;4.098;2023-02-12T11:13:54;7.37;;;6.77;;
14528;SDS011;7351;51.194;4.098;2023-02-12T11:16:27;7.13;;;6.33;;
14528;SDS011;7351;51.194;4.098;2023-02-12T11:18:59;7.13;;;6.53;;
14528;SDS011;7351;51.194;4.098;2023-02-12T11:21:28;6.67;;;6.27;;
14528;SDS011;7351;51.194;4.098;2023-02-12T11:23:56;7.60;;;6.57;;
14528;SDS011;7351;51.194;4.098;2023-02-12T11:26:45;7.13;;;6.60;;
14528;SDS011;7351;51.194;4.098;2023-02-12T11:29:16;6.17;;;5.87;;
14528;SDS011;7351;51.194;4.098;2023-02-12T11:31:58;7.23;;;6.73;;
14528;SDS011;7351;51.194;4.098;2023-02-12T11:34:26;6.40;;;6.00;;
14528;SDS011;7351;51.194;4.098;2023-02-12T11:36:54;7.83;;;7.07;;
14528;SDS011;7351;51.194;4.098;2023-02-12T11:39:22;7.17;;;6.47;;
14528;SDS011;7351;51.194;4.098;2023-02-12T11:41:54;8.80;;;6.10;;
14528;SDS011;7351;51.194;4.098;2023-02-12T11:44:23;7.40;;;6.37;;
14528;SDS011;7351;51.194;4.098;2023-02-12T11:46:53;6.77;;;6.17;;
14528;SDS011;7351;51.194;4.098;2023-02-12T11:49:23;7.53;;;6.57;;
14528;SDS011;7351;51.194;4.098;2023-02-12T11:51:51;6.93;;;6.27;;
14528;SDS011;7351;51.194;4.098;2023-02-12T11:54:21;6.83;;;6.23;;
14528;SDS011;7351;51.194;4.098;2023-02-12T11:56:50;6.30;;;5.80;;
14528;SDS011;7351;51.194;4.098;2023-02-12T11:59:26;6.83;;;6.33;;
14528;SDS011;7351;51.194;4.098;2023-02-12T12:01:59;7.37;;;6.87;;
14528;SDS011;7351;51.194;4.098;2023-02-12T12:04:32;7.00;;;6.50;;
14528;SDS011;7351;51.194;4.098;2023-02-12T12:07:02;6.63;;;6.20;;
14528;SDS011;7351;51.194;4.098;2023-02-12T12:09:38;6.60;;;6.07;;
14528;SDS011;7351;51.194;4.098;2023-02-12T12:12:10;7.30;;;6.80;;
14528;SDS011;7351;51.194;4.098;2023-02-12T12:14:45;7.00;;;6.40;;
14528;SDS011;7351;51.194;4.098;2023-02-12T12:17:35;8.57;;;6.53;;
14528;SDS011;7351;51.194;4.098;2023-02-12T12:20:27;7.23;;;6.73;;
14528;SDS011;7351;51.194;4.098;2023-02-12T12:22:59;7.43;;;6.80;;
14528;SDS011;7351;51.194;4.098;2023-02-12T12:25:30;6.80;;;6.27;;
14528;SDS011;7351;51.194;4.098;2023-02-12T12:28:05;7.67;;;7.13;;
14528;SDS011;7351;51.194;4.098;2023-02-12T12:30:54;7.03;;;6.50;;
14528;SDS011;7351;51.194;4.098;2023-02-12T12:33:29;7.47;;;6.87;;
14528;SDS011;7351;51.194;4.098;2023-02-12T12:39:13;7.70;;;7.03;;
14528;SDS011;7351;51.194;4.098;2023-02-12T12:41:48;7.70;;;7.13;;
14528;SDS011;7351;51.194;4.098;2023-02-12T12:44:39;7.93;;;7.37;;
14528;SDS011;7351;51.194;4.098;2023-02-12T12:47:23;7.47;;;6.77;;
14528;SDS011;7351;51.194;4.098;2023-02-12T12:49:58;9.03;;;8.30;;
14528;SDS011;7351;51.194;4.098;2023-02-12T12:52:34;7.80;;;7.30;;
14528;SDS011;7351;51.194;4.098;2023-02-12T12:55:22;10.30;;;6.70;;
14528;SDS011;7351;51.194;4.098;2023-02-12T12:58:09;7.83;;;7.10;;
14528;SDS011;7351;51.194;4.098;2023-02-12T13:00:45;7.10;;;6.70;;
14528;SDS011;7351;51.194;4.098;2023-02-12T13:06:37;6.93;;;6.30;;
14528;SDS011;7351;51.194;4.098;2023-02-12T13:09:23;9.43;;;8.33;;
14528;SDS011;7351;51.194;4.098;2023-02-12T13:12:12;7.30;;;6.70;;
14528;SDS011;7351;51.194;4.098;2023-02-12T13:14:57;9.43;;;6.97;;
14528;SDS011;7351;51.194;4.098;2023-02-12T13:17:30;8.90;;;7.60;;
14528;SDS011;7351;51.194;4.098;2023-02-12T13:20:03;8.00;;;7.10;;
14528;SDS011;7351;51.194;4.098;2023-02-12T13:22:38;9.97;;;7.77;;
14528;SDS011;7351;51.194;4.098;2023-02-12T13:25:14;9.53;;;8.20;;
14528;SDS011;7351;51.194;4.098;2023-02-12T13:27:47;9.93;;;9.13;;
14528;SDS011;7351;51.194;4.098;2023-02-12T13:30:19;10.37;;;8.30;;
14528;SDS011;7351;51.194;4.098;2023-02-12T13:32:53;9.57;;;8.20;;
14528;SDS011;7351;51.194;4.098;2023-02-12T13:35:28;10.00;;;9.23;;
14528;SDS011;7351;51.194;4.098;2023-02-12T13:37:57;8.90;;;8.27;;
14528;SDS011;7351;51.194;4.098;2023-02-12T13:40:27;9.67;;;8.57;;
14528;SDS011;7351;51.194;4.098;2023-02-12T13:42:57;8.10;;;7.40;;
14528;SDS011;7351;51.194;4.098;2023-02-12T13:45:35;9.40;;;8.53;;
14528;SDS011;7351;51.194;4.098;2023-02-12T13:51:08;8.53;;;8.03;;
14528;SDS011;7351;51.194;4.098;2023-02-12T13:53:46;8.17;;;7.60;;
14528;SDS011;7351;51.194;4.098;2023-02-12T13:56:28;8.40;;;7.90;;
14528;SDS011;7351;51.194;4.098;2023-02-12T13:59:03;8.40;;;7.90;;
14528;SDS011;7351;51.194;4.098;2023-02-12T14:05:13;8.80;;;8.30;;
14528;SDS011;7351;51.194;4.098;2023-02-12T14:07:52;9.43;;;8.90;;
14528;SDS011;7351;51.194;4.098;2023-02-12T14:10:25;9.03;;;8.37;;
14528;SDS011;7351;51.194;4.098;2023-02-12T14:12:56;9.10;;;8.50;;
14528;SDS011;7351;51.194;4.098;2023-02-12T14:15:35;7.87;;;7.23;;
14528;SDS011;7351;51.194;4.098;2023-02-12T14:18:05;8.40;;;7.80;;
14528;SDS011;7351;51.194;4.098;2023-02-12T14:20:48;8.67;;;8.17;;
14528;SDS011;7351;51.194;4.098;2023-02-12T14:27:17;9.70;;;9.07;;
14528;SDS011;7351;51.194;4.098;2023-02-12T14:29:59;9.43;;;8.93;;
14528;SDS011;7351;51.194;4.098;2023-02-12T14:32:56;9.53;;;8.60;;
14528;SDS011;7351;51.194;4.098;2023-02-12T14:35:38;9.87;;;9.23;;
14528;SDS011;7351;51.194;4.098;2023-02-12T14:41:13;9.33;;;8.53;;
14528;SDS011;7351;51.194;4.098;2023-02-12T14:50:17;9.67;;;9.07;;
14528;SDS011;7351;51.194;4.098;2023-02-12T14:52:50;8.93;;;8.33;;
14528;SDS011;7351;51.194;4.098;2023-02-12T14:55:21;10.57;;;9.77;;
14528;SDS011;7351;51.194;4.098;2023-02-12T14:57:54;9.67;;;9.10;;
14528;SDS011;7351;51.194;4.098;2023-02-12T15:00:26;10.60;;;9.43;;
14528;SDS011;7351;51.194;4.098;2023-02-12T15:02:59;9.93;;;9.20;;
14528;SDS011;7351;51.194;4.098;2023-02-12T15:05:36;9.07;;;8.37;;
14528;SDS011;7351;51.194;4.098;2023-02-12T15:08:06;9.60;;;8.73;;
14528;SDS011;7351;51.194;4.098;2023-02-12T15:10:45;9.57;;;8.90;;
14528;SDS011;7351;51.194;4.098;2023-02-12T15:13:17;9.50;;;9.00;;
14528;SDS011;7351;51.194;4.098;2023-02-12T15:15:54;10.13;;;9.43;;
14528;SDS011;7351;51.194;4.098;2023-02-12T15:18:26;10.13;;;9.53;;
14528;SDS011;7351;51.194;4.098;2023-02-12T15:21:01;10.40;;;9.60;;
14528;SDS011;7351;51.194;4.098;2023-02-12T15:23:37;11.80;;;10.90;;
14528;SDS011;7351;51.194;4.098;2023-02-12T15:26:09;10.97;;;10.20;;
14528;SDS011;7351;51.194;4.098;2023-02-12T15:28:38;11.30;;;10.40;;
14528;SDS011;7351;51.194;4.098;2023-02-12T15:31:06;10.50;;;9.80;;
14528;SDS011;7351;51.194;4.098;2023-02-12T15:33:36;10.47;;;9.77;;
14528;SDS011;7351;51.194;4.098;2023-02-12T15:36:11;10.47;;;9.67;;
14528;SDS011;7351;51.194;4.098;2023-02-12T15:38:42;9.50;;;8.90;;
14528;SDS011;7351;51.194;4.098;2023-02-12T15:41:22;10.37;;;9.57;;
14528;SDS011;7351;51.194;4.098;2023-02-12T15:43:51;11.80;;;10.93;;
14528;SDS011;7351;51.194;4.098;2023-02-12T15:46:18;10.77;;;10.07;;
14528;SDS011;7351;51.194;4.098;2023-02-12T15:48:45;11.87;;;10.77;;
14528;SDS011;7351;51.194;4.098;2023-02-12T15:51:15;11.50;;;10.80;;
14528;SDS011;7351;51.194;4.098;2023-02-12T15:53:45;10.33;;;9.63;;
14528;SDS011;7351;51.194;4.098;2023-02-12T15:56:13;11.83;;;11.10;;
14528;SDS011;7351;51.194;4.098;2023-02-12T15:58:45;11.33;;;10.43;;